Time;durP1;ratioP1;P1;durP2;ratioP2;P2;SDS_P1;SDS_P2;PMS_P1;PMS_P2;Temp;Humidity;BMP_temperature;BMP_pressure;BME280_temperature;BME280_humidity;BME280_pressure;Samples;Min_cycle;Max_cycle;Signal;HPM_P1;HPM_P2
2022/11/05 00:09:34;;;;;;;3.42;0.82;;;23.80;99.90;;;;;;4962261;28;20665;-80
2022/11/05 00:17:43;;;;;;;4.05;1.08;;;23.70;99.90;;;;;;4985065;28;20273;-75
2022/11/05 00:20:14;;;;;;;3.03;0.80;;;23.90;99.90;;;;;;4989330;28;20234;-76
2022/11/05 00:25:32;;;;;;;3.92;0.70;;;24.00;99.90;;;;;;4990695;28;20203;-76
2022/11/05 00:28:04;;;;;;;3.13;0.70;;;24.10;99.90;;;;;;4987807;28;20755;-75
2022/11/05 00:30:37;;;;;;;2.72;0.80;;;24.20;99.90;;;;;;4988986;28;20245;-74
2022/11/05 00:33:08;;;;;;;3.75;0.73;;;24.10;99.90;;;;;;4989867;28;20215;-71
2022/11/05 00:35:39;;;;;;;1.30;0.73;;;23.50;99.90;;;;;;4987872;28;20228;-74
2022/11/05 00:38:09;;;;;;;4.00;0.70;;;23.30;99.90;;;;;;4990820;28;20192;-73
2022/11/05 00:40:41;;;;;;;2.22;0.70;;;23.20;99.90;;;;;;4990244;28;20269;-73
2022/11/05 00:46:01;;;;;;;2.45;0.82;;;23.80;99.90;;;;;;4990676;28;20199;-75
2022/11/05 00:51:19;;;;;;;2.92;0.73;;;24.10;99.90;;;;;;4989422;28;20202;-77
2022/11/05 00:53:52;;;;;;;2.38;0.65;;;24.20;99.90;;;;;;4992379;28;20195;-75
2022/11/05 00:56:23;;;;;;;3.17;0.73;;;24.10;99.90;;;;;;4990489;28;20204;-75
2022/11/05 00:58:54;;;;;;;3.60;0.85;;;24.10;99.90;;;;;;4991557;28;20198;-72
2022/11/05 01:01:26;;;;;;;3.67;0.80;;;24.10;99.90;;;;;;4992034;28;20199;-75
2022/11/05 01:03:57;;;;;;;5.10;0.98;;;24.30;99.90;;;;;;4990485;28;20221;-75
2022/11/05 01:06:28;;;;;;;3.55;0.80;;;24.10;99.90;;;;;;4985621;28;20207;-74
2022/11/05 01:08:59;;;;;;;4.72;0.93;;;24.10;99.90;;;;;;4990700;28;20204;-76
2022/11/05 01:11:35;;;;;;;7.32;0.80;;;24.10;99.90;;;;;;4988710;28;20208;-76
2022/11/05 01:14:08;;;;;;;3.00;0.70;;;24.10;99.90;;;;;;4989679;28;20226;-77
2022/11/05 01:16:42;;;;;;;3.75;0.82;;;24.10;99.90;;;;;;4987458;28;20200;-77
2022/11/05 01:19:13;;;;;;;2.35;0.70;;;23.90;99.90;;;;;;4986677;28;20222;-78
2022/11/05 01:21:44;;;;;;;3.80;0.80;;;23.70;99.90;;;;;;4990452;28;20203;-77
2022/11/05 01:24:15;;;;;;;4.95;0.65;;;23.80;99.90;;;;;;4987081;28;20597;-78
2022/11/05 01:26:46;;;;;;;2.30;0.70;;;23.90;99.90;;;;;;4991456;28;20203;-75
2022/11/05 01:29:16;;;;;;;1.88;0.70;;;24.00;99.90;;;;;;4989350;28;20670;-75
2022/11/05 01:31:49;;;;;;;4.78;0.75;;;23.90;99.90;;;;;;4988540;28;20318;-77
2022/11/05 01:34:21;;;;;;;4.93;0.85;;;23.80;99.90;;;;;;4984342;28;20314;-72
2022/11/05 01:36:51;;;;;;;4.25;0.70;;;23.70;99.90;;;;;;4991667;28;20265;-75
2022/11/05 01:39:23;;;;;;;3.83;0.70;;;23.60;99.90;;;;;;4985583;28;20238;-74
2022/11/05 01:41:53;;;;;;;4.07;1.00;;;23.50;99.90;;;;;;4990606;28;20610;-75
2022/11/05 01:44:53;;;;;;;3.53;0.80;;;23.40;99.90;;;;;;4991428;28;20683;-72
2022/11/05 01:47:35;;;;;;;5.45;0.82;;;23.30;99.90;;;;;;4992526;28;20342;-72
2022/11/05 01:50:13;;;;;;;5.45;0.80;;;23.30;99.90;;;;;;4992602;28;20194;-78
2022/11/05 01:52:44;;;;;;;2.42;0.60;;;23.40;99.90;;;;;;4989865;28;20195;-73
2022/11/05 01:55:18;;;;;;;4.20;0.80;;;23.30;99.90;;;;;;4990188;28;20220;-75
2022/11/05 01:57:49;;;;;;;3.60;0.75;;;23.30;99.90;;;;;;4991870;28;20278;-70
2022/11/05 02:00:20;;;;;;;4.43;0.70;;;23.20;99.90;;;;;;4991776;28;20252;-75
2022/11/05 02:02:53;;;;;;;4.90;1.38;;;23.10;99.90;;;;;;4988999;28;20218;-73
2022/11/05 02:05:24;;;;;;;3.72;0.98;;;23.00;99.90;;;;;;4990983;28;20215;-71
2022/11/05 02:07:55;;;;;;;5.60;1.05;;;23.00;99.90;;;;;;4990942;28;20184;-73
2022/11/05 02:10:27;;;;;;;3.83;0.60;;;23.10;99.90;;;;;;4981510;28;20200;-75
2022/11/05 02:12:57;;;;;;;2.40;0.77;;;23.20;99.90;;;;;;4990601;28;20187;-73
2022/11/05 02:15:38;;;;;;;2.60;0.90;;;23.00;99.90;;;;;;4990435;28;20206;-74
2022/11/05 02:18:21;;;;;;;3.38;1.02;;;23.00;99.90;;;;;;4992280;28;20198;-72
2022/11/05 02:20:58;;;;;;;3.90;0.70;;;22.90;99.90;;;;;;4988150;28;20573;-71
2022/11/05 02:24:05;;;;;;;2.22;0.70;;;22.70;99.90;;;;;;4990758;28;20219;-75
2022/11/05 02:27:03;;;;;;;3.13;0.93;;;22.70;99.90;;;;;;4991431;28;20196;-73
2022/11/05 02:30:07;;;;;;;2.00;0.57;;;22.60;99.90;;;;;;4989234;28;20286;-80
2022/11/05 02:33:03;;;;;;;3.67;0.95;;;22.70;99.90;;;;;;4986972;28;20315;-72
2022/11/05 02:35:58;;;;;;;3.30;0.80;;;22.80;99.90;;;;;;4984464;28;20230;-71
2022/11/05 02:38:39;;;;;;;4.05;0.80;;;23.00;99.90;;;;;;4986175;28;20207;-72
2022/11/05 02:41:15;;;;;;;4.00;0.70;;;23.00;99.90;;;;;;4988380;28;20195;-71
2022/11/05 02:44:08;;;;;;;3.63;0.70;;;22.90;99.90;;;;;;4991436;28;20211;-73
2022/11/05 02:46:46;;;;;;;5.57;0.77;;;22.90;99.90;;;;;;4990041;28;20231;-71
2022/11/05 02:49:28;;;;;;;2.90;0.80;;;22.80;99.90;;;;;;4990378;28;20506;-71
2022/11/05 02:52:02;;;;;;;2.65;0.65;;;22.70;99.90;;;;;;4990655;28;20618;-75
2022/11/05 02:54:38;;;;;;;2.28;0.60;;;22.50;99.90;;;;;;4988597;28;20206;-79
2022/11/05 02:57:09;;;;;;;2.75;0.63;;;22.50;99.90;;;;;;4989097;28;20586;-77
2022/11/05 02:59:40;;;;;;;2.83;0.77;;;22.70;99.90;;;;;;4987418;28;20570;-73
2022/11/05 03:02:10;;;;;;;2.72;0.65;;;22.60;99.90;;;;;;4990443;28;20566;-73
2022/11/05 03:04:43;;;;;;;2.58;0.55;;;22.50;99.90;;;;;;4986184;28;20230;-74
2022/11/05 03:07:30;;;;;;;2.97;0.70;;;22.50;99.90;;;;;;4986472;28;20678;-72
2022/11/05 03:10:29;;;;;;;5.85;1.10;;;22.60;99.90;;;;;;4991706;28;20697;-75
2022/11/05 03:13:13;;;;;;;4.07;0.85;;;22.50;99.90;;;;;;4993871;28;20281;-73
2022/11/05 03:16:04;;;;;;;3.55;0.60;;;22.50;99.90;;;;;;4986217;28;20194;-76
2022/11/05 03:18:41;;;;;;;2.38;0.68;;;22.50;99.90;;;;;;4993775;28;20198;-75
2022/11/05 03:21:22;;;;;;;2.30;0.60;;;22.50;99.90;;;;;;4992863;28;20194;-75
2022/11/05 03:23:57;;;;;;;3.95;0.60;;;22.60;99.90;;;;;;4994914;28;20577;-72
2022/11/05 03:26:32;;;;;;;3.08;0.60;;;22.50;99.90;;;;;;4994820;28;20191;-75
2022/11/05 03:29:05;;;;;;;4.25;0.60;;;22.30;99.90;;;;;;4995534;28;20565;-74
2022/11/05 03:31:38;;;;;;;2.70;0.55;;;22.40;99.90;;;;;;4993205;28;20191;-76
2022/11/05 03:34:10;;;;;;;1.95;0.50;;;22.30;99.90;;;;;;4989040;28;20227;-74
2022/11/05 03:36:47;;;;;;;2.83;0.68;;;22.20;99.90;;;;;;4995704;28;20641;-74
2022/11/05 03:39:22;;;;;;;2.67;0.57;;;22.20;99.90;;;;;;4989565;28;20310;-76
2022/11/05 03:41:55;;;;;;;2.55;0.57;;;22.40;99.90;;;;;;4987515;28;20202;-71
2022/11/05 03:44:28;;;;;;;2.88;0.60;;;22.40;99.90;;;;;;4994803;28;20212;-74
2022/11/05 03:47:05;;;;;;;3.50;0.82;;;22.40;99.90;;;;;;4995581;28;20662;-76
2022/11/05 03:49:41;;;;;;;2.03;0.75;;;22.40;99.90;;;;;;4987454;28;20188;-73
2022/11/05 03:52:16;;;;;;;2.92;0.60;;;22.40;99.90;;;;;;4990210;28;20559;-72
2022/11/05 03:54:48;;;;;;;1.50;0.43;;;22.30;99.90;;;;;;4992056;28;20214;-75
2022/11/05 03:57:22;;;;;;;2.75;0.60;;;22.40;99.90;;;;;;4995615;28;20192;-75
2022/11/05 03:59:53;;;;;;;2.80;0.55;;;22.30;99.90;;;;;;4994757;28;20199;-74
2022/11/05 04:02:27;;;;;;;4.50;0.47;;;22.20;99.90;;;;;;4990539;28;20197;-75
2022/11/05 04:04:58;;;;;;;3.22;0.57;;;22.20;99.90;;;;;;4992257;28;20220;-73
2022/11/05 04:18:39;;;;;;;3.17;0.57;;;22.40;99.90;;;;;;4991486;28;20198;-78
2022/11/05 04:24:11;;;;;;;4.57;0.60;;;22.00;99.90;;;;;;4989017;28;20190;-77
2022/11/05 04:26:44;;;;;;;2.22;0.60;;;21.80;99.90;;;;;;4986164;28;20888;-77
2022/11/05 04:32:01;;;;;;;1.73;0.40;;;21.80;99.90;;;;;;4989009;28;20428;-76
2022/11/05 04:34:32;;;;;;;2.72;0.60;;;21.80;99.90;;;;;;4988689;28;20314;-81
2022/11/05 04:37:03;;;;;;;4.55;0.60;;;21.80;99.90;;;;;;4991436;28;20199;-73
2022/11/05 04:39:35;;;;;;;6.15;0.50;;;21.70;99.90;;;;;;4990180;28;20227;-76
2022/11/05 04:42:06;;;;;;;2.08;0.70;;;21.80;99.90;;;;;;4992256;28;20254;-72
2022/11/05 04:44:38;;;;;;;2.38;0.43;;;21.80;99.90;;;;;;4978216;28;20213;-77
2022/11/05 04:47:09;;;;;;;3.05;0.52;;;21.70;99.90;;;;;;4990120;28;20245;-74
2022/11/05 04:49:40;;;;;;;5.05;0.65;;;21.60;99.90;;;;;;4987704;28;20208;-74
2022/11/05 04:52:11;;;;;;;2.05;0.50;;;21.40;99.90;;;;;;4993566;28;20207;-72
2022/11/05 04:54:44;;;;;;;4.40;0.68;;;21.30;99.90;;;;;;4989217;28;20203;-75
2022/11/05 04:57:14;;;;;;;5.15;0.77;;;21.20;99.90;;;;;;4983570;28;20201;-76
2022/11/05 04:59:46;;;;;;;7.68;0.70;;;21.20;99.90;;;;;;4993683;28;20217;-73
2022/11/05 05:02:16;;;;;;;2.05;0.70;;;21.30;99.90;;;;;;4989592;28;20249;-75
2022/11/05 05:04:48;;;;;;;4.15;0.75;;;21.40;99.90;;;;;;4989642;28;20304;-77
2022/11/05 05:07:19;;;;;;;2.38;0.60;;;21.60;99.90;;;;;;4990734;28;20286;-72
2022/11/05 05:09:51;;;;;;;1.48;0.45;;;21.60;99.90;;;;;;4992789;28;20719;-72
2022/11/05 05:12:22;;;;;;;1.50;0.50;;;21.60;99.90;;;;;;4993342;28;20346;-77
2022/11/05 05:14:53;;;;;;;3.72;0.50;;;21.50;99.90;;;;;;4992551;28;20200;-78
2022/11/05 05:17:24;;;;;;;1.35;0.52;;;21.50;99.90;;;;;;4985627;28;20187;-71
2022/11/05 05:22:41;;;;;;;6.03;1.10;;;21.30;99.90;;;;;;4985231;28;20357;-75
2022/11/05 05:25:14;;;;;;;4.18;0.50;;;21.20;99.90;;;;;;4993875;28;20219;-76
2022/11/05 05:27:45;;;;;;;3.95;0.70;;;21.20;99.90;;;;;;4994007;28;20203;-77
2022/11/05 05:30:16;;;;;;;2.50;0.80;;;21.20;99.90;;;;;;4985704;28;20191;-79
2022/11/05 05:32:47;;;;;;;3.00;0.57;;;21.30;99.90;;;;;;4985271;28;20279;-79
2022/11/05 05:35:17;;;;;;;2.08;0.50;;;21.30;99.90;;;;;;4984917;28;20695;-71
2022/11/05 05:37:48;;;;;;;1.67;0.30;;;21.30;99.90;;;;;;4993368;28;20572;-72
2022/11/05 05:40:21;;;;;;;4.30;0.45;;;21.30;99.90;;;;;;4993813;28;20335;-73
2022/11/05 05:42:56;;;;;;;3.08;0.50;;;21.30;99.90;;;;;;4992729;28;20202;-74
2022/11/05 05:45:27;;;;;;;2.63;0.50;;;21.20;99.90;;;;;;4993584;28;20215;-74
2022/11/05 05:47:58;;;;;;;2.25;0.30;;;21.10;99.90;;;;;;4992575;28;20188;-75
2022/11/05 05:50:32;;;;;;;3.72;0.70;;;21.10;99.90;;;;;;4990370;28;20282;-72
2022/11/05 05:53:03;;;;;;;3.00;0.50;;;21.00;99.90;;;;;;4984355;28;20213;-73
2022/11/05 05:55:36;;;;;;;0.93;0.30;;;21.00;99.90;;;;;;4992616;28;20199;-75
2022/11/05 05:58:07;;;;;;;1.65;0.40;;;21.00;99.90;;;;;;4985111;28;20227;-76
2022/11/05 06:00:38;;;;;;;4.47;0.60;;;21.00;99.90;;;;;;4989274;28;20195;-79
2022/11/05 06:03:09;;;;;;;4.50;0.63;;;21.00;99.90;;;;;;4990345;28;20199;-75
2022/11/05 06:05:40;;;;;;;2.63;0.60;;;21.00;99.90;;;;;;4990542;28;20215;-73
2022/11/05 06:08:11;;;;;;;3.05;0.40;;;21.00;99.90;;;;;;4992834;28;20195;-72
2022/11/05 06:10:43;;;;;;;1.90;0.70;;;21.00;99.90;;;;;;4991807;28;20198;-71
2022/11/05 06:13:15;;;;;;;5.97;0.70;;;20.90;99.90;;;;;;4987192;28;20206;-76
2022/11/05 06:15:45;;;;;;;3.78;0.85;;;20.90;99.90;;;;;;4986479;28;20204;-74
2022/11/05 06:18:16;;;;;;;2.88;0.52;;;21.00;99.90;;;;;;4984138;28;20659;-78
2022/11/05 06:20:48;;;;;;;1.85;0.50;;;20.90;99.90;;;;;;4991741;28;20199;-77
2022/11/05 06:23:21;;;;;;;3.78;0.77;;;20.80;99.90;;;;;;4989852;28;20203;-77
2022/11/05 06:25:56;;;;;;;2.67;0.43;;;20.70;99.90;;;;;;4990738;28;20215;-77
2022/11/05 06:28:28;;;;;;;1.23;0.50;;;20.80;99.90;;;;;;4990764;28;20227;-73
2022/11/05 06:30:59;;;;;;;4.35;0.57;;;20.80;99.90;;;;;;4990214;28;20603;-72
2022/11/05 06:33:30;;;;;;;5.40;0.70;;;20.70;99.90;;;;;;4992532;28;20227;-76
2022/11/05 06:36:02;;;;;;;2.40;0.80;;;20.60;99.90;;;;;;4986563;28;20189;-73
2022/11/05 06:38:35;;;;;;;1.92;0.50;;;20.60;99.90;;;;;;4990392;28;20200;-81
2022/11/05 06:41:08;;;;;;;1.60;0.60;;;20.60;99.90;;;;;;4984694;28;20555;-75
2022/11/05 06:43:40;;;;;;;1.80;0.77;;;20.50;99.90;;;;;;4986573;28;20194;-77
2022/11/05 06:46:13;;;;;;;2.10;0.65;;;20.40;99.90;;;;;;4989848;28;20296;-76
2022/11/05 06:48:45;;;;;;;6.18;0.90;;;20.40;99.90;;;;;;4988750;28;20198;-76
2022/11/05 06:51:15;;;;;;;4.38;0.65;;;20.40;99.90;;;;;;4994633;28;20198;-72
2022/11/05 06:53:46;;;;;;;2.53;0.60;;;20.40;99.90;;;;;;4992774;28;20211;-73
2022/11/05 06:56:20;;;;;;;4.88;0.60;;;20.30;99.90;;;;;;4996107;28;20563;-78
2022/11/05 06:58:50;;;;;;;2.00;0.55;;;20.30;99.90;;;;;;4993475;28;20551;-72
2022/11/05 07:01:22;;;;;;;2.05;1.00;;;20.20;99.90;;;;;;4995481;28;20192;-74
2022/11/05 07:03:52;;;;;;;2.95;0.80;;;20.30;99.90;;;;;;4994903;28;21028;-75
2022/11/05 07:06:23;;;;;;;5.00;0.73;;;20.30;99.90;;;;;;4995734;28;20694;-73
2022/11/05 07:08:54;;;;;;;3.20;0.60;;;20.20;99.90;;;;;;4993450;28;20200;-76
2022/11/05 07:11:27;;;;;;;2.20;0.80;;;20.20;99.90;;;;;;4995838;28;20550;-73
2022/11/05 07:13:57;;;;;;;2.80;0.68;;;20.10;99.90;;;;;;4994771;28;20188;-75
2022/11/05 07:16:28;;;;;;;3.13;0.70;;;20.10;99.90;;;;;;4995186;28;20270;-73
2022/11/05 07:18:59;;;;;;;4.05;1.00;;;20.20;99.90;;;;;;4993341;28;20194;-76
2022/11/05 07:21:30;;;;;;;4.68;0.80;;;20.20;99.90;;;;;;4995417;28;20546;-76
2022/11/05 07:24:01;;;;;;;4.40;0.98;;;20.20;99.90;;;;;;4995443;28;20191;-78
2022/11/05 07:26:33;;;;;;;3.38;1.10;;;20.20;99.90;;;;;;4995511;28;20219;-75
2022/11/05 07:29:04;;;;;;;2.65;1.05;;;20.10;99.90;;;;;;4993180;28;20222;-78
2022/11/05 07:31:35;;;;;;;4.45;0.77;;;20.00;99.90;;;;;;4994613;28;20188;-79
2022/11/05 07:34:06;;;;;;;3.15;0.65;;;20.00;99.90;;;;;;4991621;28;20250;-76
2022/11/05 07:36:38;;;;;;;2.47;0.70;;;20.00;99.90;;;;;;4993442;28;20250;-79
2022/11/05 07:39:09;;;;;;;4.22;0.68;;;19.90;99.90;;;;;;4995222;28;20231;-76
2022/11/05 07:41:42;;;;;;;3.03;0.65;;;19.80;99.90;;;;;;4994408;28;20554;-81
2022/11/05 07:44:13;;;;;;;2.92;0.52;;;19.80;99.90;;;;;;4992755;28;20195;-78
2022/11/05 07:46:44;;;;;;;3.40;0.52;;;19.70;99.90;;;;;;4993517;28;20211;-78
2022/11/05 07:49:15;;;;;;;2.35;0.47;;;19.70;99.90;;;;;;4994240;28;20673;-77
2022/11/05 07:51:46;;;;;;;4.00;0.60;;;19.70;99.90;;;;;;4994630;28;20274;-77
2022/11/05 07:54:16;;;;;;;4.72;0.60;;;19.70;99.90;;;;;;4995297;28;20677;-79
2022/11/05 07:56:49;;;;;;;2.55;0.52;;;19.70;99.90;;;;;;4992242;28;20227;-77
2022/11/05 07:59:20;;;;;;;2.65;0.90;;;19.60;99.90;;;;;;4994345;28;20195;-83
2022/11/05 08:01:51;;;;;;;3.60;0.65;;;19.60;99.90;;;;;;4994570;28;20210;-75
2022/11/05 08:04:21;;;;;;;1.52;0.70;;;19.50;99.90;;;;;;4995259;28;20191;-75
2022/11/05 08:06:52;;;;;;;1.63;0.40;;;19.50;99.90;;;;;;4994392;28;20215;-73
2022/11/05 08:09:23;;;;;;;2.30;0.50;;;19.40;99.90;;;;;;4995120;28;20198;-75
2022/11/05 08:11:56;;;;;;;2.28;0.60;;;19.30;99.90;;;;;;4994098;28;20203;-75
2022/11/05 08:14:27;;;;;;;2.45;0.65;;;19.30;99.90;;;;;;4993380;28;20250;-76
2022/11/05 08:16:59;;;;;;;3.40;0.60;;;19.20;99.90;;;;;;4994021;28;20191;-72
2022/11/05 08:19:29;;;;;;;3.33;0.70;;;19.20;99.90;;;;;;4994377;28;20195;-78
2022/11/05 08:22:00;;;;;;;2.05;0.60;;;19.10;99.90;;;;;;4994026;28;20283;-74
2022/11/05 08:24:31;;;;;;;3.35;0.55;;;19.10;99.90;;;;;;4994369;28;20274;-71
2022/11/05 08:27:04;;;;;;;2.10;0.80;;;19.00;99.90;;;;;;4993640;28;20215;-77
2022/11/05 08:29:34;;;;;;;2.17;0.70;;;19.00;99.90;;;;;;4988797;28;20570;-73
2022/11/05 08:32:05;;;;;;;2.30;0.73;;;18.90;99.90;;;;;;4994359;28;20654;-76
2022/11/05 08:34:36;;;;;;;4.50;0.52;;;18.90;99.90;;;;;;4991588;28;20218;-73
2022/11/05 08:37:07;;;;;;;2.22;0.40;;;18.90;99.90;;;;;;4992000;28;20539;-72
2022/11/05 08:39:37;;;;;;;2.35;0.50;;;18.90;99.90;;;;;;4991678;28;20667;-79
2022/11/05 08:42:10;;;;;;;1.88;0.50;;;18.90;99.90;;;;;;4992229;28;20192;-74
2022/11/05 08:44:41;;;;;;;3.05;0.80;;;18.80;99.90;;;;;;4993752;28;20191;-74
2022/11/05 08:47:17;;;;;;;4.35;0.70;;;18.80;99.90;;;;;;4993730;28;20223;-74
2022/11/05 08:49:48;;;;;;;2.45;0.60;;;18.80;99.90;;;;;;4993216;28;20282;-71
2022/11/05 08:52:19;;;;;;;2.00;0.90;;;18.70;99.90;;;;;;4993886;28;20234;-76
2022/11/05 08:54:49;;;;;;;1.80;0.70;;;18.70;99.90;;;;;;4993230;28;20194;-74
2022/11/05 08:57:22;;;;;;;2.65;0.65;;;18.70;99.90;;;;;;4993424;28;20192;-75
2022/11/05 08:59:53;;;;;;;2.10;0.70;;;18.70;99.90;;;;;;4993787;28;20209;-78
2022/11/05 09:02:24;;;;;;;2.10;0.40;;;18.70;99.90;;;;;;4993352;28;20188;-79
2022/11/05 09:04:56;;;;;;;2.80;0.60;;;18.60;99.90;;;;;;4992993;28;20728;-79
2022/11/05 09:07:27;;;;;;;4.40;0.60;;;18.70;99.90;;;;;;4992353;28;20220;-72
2022/11/05 09:09:59;;;;;;;3.17;0.73;;;18.60;99.90;;;;;;4990090;28;20554;-75
2022/11/05 09:12:32;;;;;;;2.78;0.70;;;18.60;99.90;;;;;;4991772;28;20254;-77
2022/11/05 09:15:03;;;;;;;4.68;0.68;;;18.60;99.90;;;;;;4993178;28;20184;-72
2022/11/05 09:17:34;;;;;;;2.53;0.50;;;18.50;99.90;;;;;;4993065;28;20188;-78
2022/11/05 09:20:06;;;;;;;3.60;0.70;;;18.50;99.90;;;;;;4987339;28;20227;-79
2022/11/05 09:22:36;;;;;;;2.25;0.60;;;18.50;99.90;;;;;;4991011;28;20210;-78
2022/11/05 09:25:08;;;;;;;2.70;0.70;;;18.50;99.90;;;;;;4989986;28;20191;-80
2022/11/05 09:27:41;;;;;;;2.10;0.60;;;18.50;99.90;;;;;;4990963;28;20210;-78
2022/11/05 09:30:14;;;;;;;3.75;0.55;;;18.40;99.90;;;;;;4986527;28;20223;-79
2022/11/05 09:32:45;;;;;;;2.38;0.63;;;18.40;99.90;;;;;;4988830;28;21558;-76
2022/11/05 09:35:16;;;;;;;1.27;0.50;;;18.40;99.90;;;;;;4993250;28;20198;-77
2022/11/05 09:37:48;;;;;;;5.18;0.52;;;18.40;99.90;;;;;;4992190;28;20303;-79
2022/11/05 09:40:20;;;;;;;3.83;0.52;;;18.40;99.90;;;;;;4992608;28;20255;-75
2022/11/05 09:42:54;;;;;;;1.58;0.52;;;18.40;99.90;;;;;;4993218;28;20219;-77
2022/11/05 09:45:28;;;;;;;3.42;0.80;;;18.30;99.90;;;;;;4992487;28;20246;-76
2022/11/05 09:48:03;;;;;;;4.13;0.70;;;18.30;99.90;;;;;;4992785;28;20621;-71
2022/11/05 09:50:37;;;;;;;3.35;0.75;;;18.30;99.90;;;;;;4992455;28;20209;-75
2022/11/05 09:53:08;;;;;;;3.13;0.60;;;18.30;99.90;;;;;;4989643;28;20191;-74
2022/11/05 09:55:42;;;;;;;2.35;0.60;;;18.30;99.90;;;;;;4992291;28;20217;-77
2022/11/05 09:58:21;;;;;;;3.30;0.80;;;18.30;99.90;;;;;;4990527;28;20201;-76
2022/11/05 10:00:52;;;;;;;2.35;0.70;;;18.20;99.90;;;;;;4992577;28;20927;-77
2022/11/05 10:03:24;;;;;;;3.38;0.70;;;18.20;99.90;;;;;;4992741;28;20218;-71
2022/11/05 10:05:59;;;;;;;2.47;0.70;;;18.20;99.90;;;;;;4992103;28;20212;-74
2022/11/05 10:08:35;;;;;;;4.28;0.80;;;18.20;99.90;;;;;;4992612;28;20666;-75
2022/11/05 10:11:14;;;;;;;3.97;0.85;;;18.10;99.90;;;;;;4993001;28;20218;-75
2022/11/05 10:13:55;;;;;;;4.32;0.70;;;18.10;99.90;;;;;;4990649;28;20195;-75
2022/11/05 10:16:29;;;;;;;1.95;0.40;;;18.10;99.90;;;;;;4991906;28;20634;-72
2022/11/05 10:19:05;;;;;;;1.88;0.60;;;18.10;99.90;;;;;;4991432;28;20187;-74
2022/11/05 10:21:36;;;;;;;2.17;0.50;;;18.10;99.90;;;;;;4989554;28;20195;-71
2022/11/05 10:24:15;;;;;;;2.85;0.63;;;18.10;99.90;;;;;;4993081;28;20323;-72
2022/11/05 10:26:49;;;;;;;1.65;0.60;;;18.00;99.90;;;;;;4995282;28;20295;-74
2022/11/05 10:29:28;;;;;;;4.18;0.88;;;18.00;99.90;;;;;;4996819;28;20197;-71
2022/11/05 10:31:59;;;;;;;3.42;0.63;;;18.00;99.90;;;;;;4995445;28;20183;-71
2022/11/05 10:34:33;;;;;;;3.92;0.77;;;18.00;99.90;;;;;;4995447;28;20219;-71
2022/11/05 10:37:04;;;;;;;2.65;0.60;;;18.00;99.90;;;;;;4996237;28;20553;-76
2022/11/05 10:39:36;;;;;;;3.50;0.60;;;18.00;99.90;;;;;;4993456;28;20233;-71
2022/11/05 10:42:35;;;;;;;3.50;0.70;;;17.90;99.90;;;;;;4993409;28;20194;-76
2022/11/05 10:45:18;;;;;;;2.70;0.50;;;17.90;99.90;;;;;;4992732;28;20274;-75
2022/11/05 10:48:01;;;;;;;2.97;0.60;;;17.90;99.90;;;;;;4992042;28;20593;-75
2022/11/05 10:50:33;;;;;;;2.72;0.52;;;17.90;99.90;;;;;;4992684;28;20188;-75
2022/11/05 10:53:05;;;;;;;1.48;0.60;;;17.90;99.90;;;;;;4992468;28;20188;-71
2022/11/05 10:55:39;;;;;;;2.00;0.50;;;17.90;99.90;;;;;;4990021;28;20543;-73
2022/11/05 10:58:21;;;;;;;2.42;0.50;;;17.80;99.90;;;;;;4992964;28;20650;-75
2022/11/05 11:01:08;;;;;;;2.45;0.57;;;17.80;99.90;;;;;;4995828;28;20194;-76
2022/11/05 11:03:43;;;;;;;2.85;0.80;;;17.80;99.90;;;;;;4992208;28;20720;-76
2022/11/05 11:06:25;;;;;;;2.30;0.60;;;17.80;99.90;;;;;;4993161;28;20211;-75
2022/11/05 11:08:57;;;;;;;3.83;0.60;;;17.80;99.90;;;;;;4995281;28;20538;-75
2022/11/05 11:11:34;;;;;;;1.52;0.60;;;17.70;99.90;;;;;;4995723;28;20202;-75
2022/11/05 11:14:08;;;;;;;2.22;0.50;;;17.70;99.90;;;;;;4995011;28;20191;-73
2022/11/05 11:16:43;;;;;;;0.90;0.40;;;17.70;99.90;;;;;;4993384;28;20635;-76
2022/11/05 11:19:28;;;;;;;3.13;0.47;;;17.70;99.90;;;;;;4991874;28;20198;-76
2022/11/05 11:22:19;;;;;;;2.55;0.43;;;17.70;99.90;;;;;;4994231;28;20287;-76
2022/11/05 11:24:52;;;;;;;4.13;0.95;;;17.60;99.90;;;;;;4989224;28;20230;-75
2022/11/05 11:27:26;;;;;;;4.97;0.68;;;17.60;99.90;;;;;;4995228;28;20216;-75
2022/11/05 11:30:01;;;;;;;4.07;0.70;;;17.60;99.90;;;;;;4995210;28;20214;-71
2022/11/05 11:32:37;;;;;;;3.10;0.77;;;17.50;99.90;;;;;;4994606;28;20221;-73
2022/11/05 11:35:10;;;;;;;3.35;0.95;;;17.50;99.90;;;;;;4993191;28;20187;-72
2022/11/05 11:37:42;;;;;;;2.35;0.82;;;17.40;99.90;;;;;;4993569;28;20188;-72
2022/11/05 11:40:18;;;;;;;3.75;1.10;;;17.40;99.90;;;;;;4990465;28;20322;-74
2022/11/05 11:42:52;;;;;;;3.42;0.90;;;17.30;99.90;;;;;;4994489;28;20214;-72
2022/11/05 11:45:26;;;;;;;2.28;0.88;;;17.40;99.90;;;;;;4991889;28;20195;-73
2022/11/05 11:48:02;;;;;;;2.95;0.75;;;17.30;99.90;;;;;;4994684;28;20217;-73
2022/11/05 11:50:39;;;;;;;1.90;0.70;;;17.30;99.90;;;;;;4990496;28;20677;-73
2022/11/05 11:53:30;;;;;;;3.03;0.73;;;17.30;99.90;;;;;;4992119;28;20195;-75
2022/11/05 11:56:04;;;;;;;3.25;0.65;;;17.20;99.90;;;;;;4993744;28;20196;-76
2022/11/05 11:58:46;;;;;;;2.22;0.80;;;17.20;99.90;;;;;;4994097;28;20199;-76
2022/11/05 12:01:52;;;;;;;3.22;0.77;;;17.10;99.90;;;;;;4992152;28;20750;-75
2022/11/05 12:04:50;;;;;;;2.17;0.75;;;17.20;99.90;;;;;;4989686;28;20213;-75
2022/11/05 12:07:35;;;;;;;2.45;0.60;;;17.10;99.90;;;;;;4985003;28;20239;-74
2022/11/05 12:10:34;;;;;;;2.28;0.70;;;17.10;99.90;;;;;;4988996;28;20560;-72
2022/11/05 12:13:45;;;;;;;2.58;0.68;;;17.10;99.90;;;;;;4990481;28;20569;-72
2022/11/05 12:16:54;;;;;;;3.95;1.00;;;17.10;99.90;;;;;;4988152;28;20207;-75
2022/11/05 12:19:43;;;;;;;3.58;1.10;;;17.10;99.90;;;;;;4990415;28;20678;-75
2022/11/05 12:22:23;;;;;;;3.72;0.88;;;17.10;99.90;;;;;;4993734;28;20192;-76
2022/11/05 12:25:20;;;;;;;2.90;1.13;;;17.00;99.90;;;;;;4993844;28;20184;-75
2022/11/05 12:28:04;;;;;;;3.88;1.00;;;17.00;99.90;;;;;;4993047;28;20223;-75
2022/11/05 12:30:44;;;;;;;3.42;0.88;;;17.00;99.90;;;;;;4992019;28;20192;-74
2022/11/05 12:33:27;;;;;;;3.42;1.15;;;16.90;99.90;;;;;;4993900;28;20306;-76
2022/11/05 12:36:12;;;;;;;2.35;0.80;;;16.90;99.90;;;;;;4994679;28;20191;-76
2022/11/05 12:39:09;;;;;;;2.78;1.00;;;16.90;99.90;;;;;;4987610;28;20233;-75
2022/11/05 12:41:47;;;;;;;3.80;0.98;;;16.80;99.90;;;;;;4985681;28;20671;-75
2022/11/05 12:44:36;;;;;;;3.20;1.20;;;16.80;99.90;;;;;;4990095;28;20286;-76
2022/11/05 12:47:20;;;;;;;2.92;1.17;;;16.80;99.90;;;;;;4993360;28;20243;-71
2022/11/05 12:50:09;;;;;;;3.28;1.05;;;16.80;99.90;;;;;;4982947;28;20194;-73
2022/11/05 12:53:14;;;;;;;5.80;0.95;;;16.80;99.90;;;;;;4987564;28;20200;-75
2022/11/05 12:55:49;;;;;;;3.67;0.98;;;16.70;99.90;;;;;;4992201;28;20210;-75
2022/11/05 12:58:25;;;;;;;2.88;0.93;;;16.70;99.90;;;;;;4985413;28;20209;-74
2022/11/05 13:01:00;;;;;;;3.65;0.80;;;16.70;99.90;;;;;;4990490;28;20212;-72
2022/11/05 13:03:40;;;;;;;2.72;0.80;;;16.70;99.90;;;;;;4992646;28;20202;-75
2022/11/05 13:06:14;;;;;;;4.25;1.02;;;16.70;99.90;;;;;;4994261;28;21719;-71
2022/11/05 13:08:51;;;;;;;3.45;1.00;;;16.60;99.90;;;;;;4987543;28;20229;-75
2022/11/05 13:11:29;;;;;;;3.05;0.90;;;16.60;99.90;;;;;;4990016;28;20198;-76
2022/11/05 13:14:10;;;;;;;3.75;1.00;;;16.60;99.90;;;;;;4993892;28;20269;-74
2022/11/05 13:16:44;;;;;;;4.40;1.00;;;16.60;99.90;;;;;;4989449;28;20856;-76
2022/11/05 13:19:20;;;;;;;3.63;1.15;;;16.60;99.90;;;;;;4985808;28;20202;-75
2022/11/05 13:21:56;;;;;;;3.25;1.00;;;16.60;99.90;;;;;;4990701;28;20275;-75
2022/11/05 13:24:30;;;;;;;4.55;1.30;;;16.60;99.90;;;;;;4993393;28;20191;-75
2022/11/05 13:27:09;;;;;;;2.50;0.93;;;16.60;99.90;;;;;;4993566;28;20219;-75
2022/11/05 13:29:49;;;;;;;5.13;1.10;;;16.60;99.90;;;;;;4990125;28;20205;-76
2022/11/05 13:32:30;;;;;;;3.72;1.20;;;16.60;99.90;;;;;;4991434;28;20226;-76
2022/11/05 13:35:02;;;;;;;2.92;1.33;;;16.60;99.90;;;;;;4984348;28;20196;-76
2022/11/05 13:40:31;;;;;;;3.60;1.10;;;16.60;99.90;;;;;;4988698;28;20241;-76
2022/11/05 13:43:27;;;;;;;5.30;1.20;;;16.50;99.90;;;;;;4988713;28;20650;-76
2022/11/05 13:46:18;;;;;;;4.80;1.25;;;16.50;99.90;;;;;;4983330;28;20564;-75
2022/11/05 13:49:07;;;;;;;2.53;1.10;;;16.50;99.90;;;;;;4990110;28;20561;-75
2022/11/05 13:51:54;;;;;;;3.75;1.13;;;16.50;99.90;;;;;;4990502;28;20201;-76
2022/11/05 13:55:04;;;;;;;3.33;1.05;;;16.50;99.90;;;;;;4991925;28;20202;-76
2022/11/05 13:58:11;;;;;;;3.85;1.13;;;16.40;99.90;;;;;;4972389;28;20238;-75
2022/11/05 14:00:49;;;;;;;3.35;1.08;;;16.40;99.90;;;;;;4984431;28;20203;-77
2022/11/05 14:03:22;;;;;;;3.53;1.77;;;16.30;99.90;;;;;;4986935;28;20200;-76
2022/11/05 14:05:58;;;;;;;5.75;1.65;;;16.30;99.90;;;;;;4992484;28;20567;-76
2022/11/05 14:08:31;;;;;;;3.03;1.23;;;16.20;99.90;;;;;;4990304;28;20219;-72
2022/11/05 14:11:05;;;;;;;2.58;1.50;;;16.20;99.90;;;;;;4985619;28;20195;-76
2022/11/05 14:13:38;;;;;;;4.57;1.60;;;16.20;99.90;;;;;;4990690;28;20262;-74
2022/11/05 14:16:22;;;;;;;3.72;1.63;;;16.20;99.90;;;;;;4989748;28;20199;-77